Time;durP1;ratioP1;P1;durP2;ratioP2;P2;SDS_P1;SDS_P2;PMS_P1;PMS_P2;Temp;Humidity;BMP_temperature;BMP_pressure;BME280_temperature;BME280_humidity;BME280_pressure;Samples;Min_cycle;Max_cycle;Signal;HPM_P1;HPM_P2
2022/12/30 00:00:24;;;;;;;;;;;21.60;65.40;;;;;;1559700;75;696;-76
2022/12/30 00:02:26;;;;;;;;;;;21.70;65.30;;;;;;1583417;73;1452;-78
2022/12/30 00:04:28;;;;;;;;;;;21.60;65.20;;;;;;1569121;74;789;-77
2022/12/30 00:06:30;;;;;;;;;;;21.70;65.20;;;;;;1579737;74;1077;-77
2022/12/30 00:08:47;;;;;;;;;;;21.70;65.20;;;;;;1576593;75;601;-77
2022/12/30 00:10:49;;;;;;;;;;;21.60;65.20;;;;;;1559491;75;627;-76
2022/12/30 00:33:58;;;;;;;;;;;21.70;64.80;;;;;;1559574;75;596;-78
2022/12/30 00:36:00;;;;;;;;;;;21.60;64.80;;;;;;1570567;74;1948;-78
2022/12/30 00:38:02;;;;;;;;;;;21.60;64.70;;;;;;1573716;75;699;-75
2022/12/30 00:40:04;;;;;;;;;;;21.70;64.80;;;;;;1575299;74;749;-79
2022/12/30 00:44:26;;;;;;;;;;;21.70;64.80;;;;;;1580586;74;1593;-78
2022/12/30 00:46:28;;;;;;;;;;;21.70;64.90;;;;;;1571574;74;1161;-78
2022/12/30 00:57:49;;;;;;;;;;;21.80;64.70;;;;;;1625500;72;1619;-77
2022/12/30 00:59:50;;;;;;;;;;;21.70;64.80;;;;;;1628190;72;657;-77
2022/12/30 01:01:52;;;;;;;;;;;21.70;64.90;;;;;;1624918;72;699;-79
2022/12/30 01:03:54;;;;;;;;;;;21.60;64.80;;;;;;1561985;75;745;-78
2022/12/30 01:05:56;;;;;;;;;;;21.70;64.80;;;;;;1573626;75;1293;-77
2022/12/30 01:07:58;;;;;;;;;;;21.70;64.80;;;;;;1569235;75;662;-78
2022/12/30 01:10:00;;;;;;;;;;;21.70;64.80;;;;;;1576934;75;717;-78
2022/12/30 01:12:08;;;;;;;;;;;21.70;64.70;;;;;;1565982;75;1514;-75
2022/12/30 01:14:10;;;;;;;;;;;21.80;64.80;;;;;;1558261;74;707;-78
2022/12/30 01:16:12;;;;;;;;;;;21.70;65.00;;;;;;1569045;74;1970;-77
2022/12/30 01:18:14;;;;;;;;;;;21.70;65.10;;;;;;1558721;74;764;-76
2022/12/30 01:20:16;;;;;;;;;;;21.70;65.10;;;;;;1569000;74;562;-77
2022/12/30 01:22:18;;;;;;;;;;;21.70;65.10;;;;;;1568832;74;753;-73
2022/12/30 01:24:20;;;;;;;;;;;21.70;65.10;;;;;;1578444;74;731;-74
2022/12/30 01:26:22;;;;;;;;;;;21.70;65.00;;;;;;1635008;70;1489;-75
2022/12/30 01:28:24;;;;;;;;;;;21.70;64.90;;;;;;1630786;72;737;-75
2022/12/30 01:30:26;;;;;;;;;;;21.70;64.90;;;;;;1628202;72;718;-79
2022/12/30 01:32:28;;;;;;;;;;;21.70;65.00;;;;;;1630725;72;715;-79
2022/12/30 01:34:30;;;;;;;;;;;21.70;65.10;;;;;;1627736;72;732;-81
2022/12/30 01:36:32;;;;;;;;;;;21.70;65.10;;;;;;1628835;72;1934;-76
2022/12/30 01:38:35;;;;;;;;;;;21.70;65.00;;;;;;1633875;72;703;-77
2022/12/30 01:40:40;;;;;;;;;;;21.70;65.10;;;;;;1631773;72;1516;-79
2022/12/30 01:42:42;;;;;;;;;;;21.80;65.00;;;;;;1628172;72;725;-79
2022/12/30 01:44:51;;;;;;;;;;;21.70;65.00;;;;;;1628265;72;784;-78
2022/12/30 01:46:53;;;;;;;;;;;21.70;65.00;;;;;;1627273;72;1118;-78
2022/12/30 01:48:55;;;;;;;;;;;21.70;65.00;;;;;;1628900;72;710;-77
2022/12/30 01:50:58;;;;;;;;;;;21.70;64.80;;;;;;1625254;72;755;-75
2022/12/30 01:53:04;;;;;;;;;;;21.80;64.80;;;;;;1624933;72;767;-75
2022/12/30 01:55:08;;;;;;;;;;;21.70;64.90;;;;;;1627787;72;1447;-75
2022/12/30 01:57:10;;;;;;;;;;;21.70;64.90;;;;;;1630232;72;1931;-76
2022/12/30 01:59:13;;;;;;;;;;;21.70;64.90;;;;;;1624904;72;704;-74
2022/12/30 02:01:15;;;;;;;;;;;21.70;64.90;;;;;;1635330;72;1060;-75
2022/12/30 02:03:17;;;;;;;;;;;21.70;64.80;;;;;;1626379;72;573;-77
2022/12/30 02:05:20;;;;;;;;;;;21.70;64.80;;;;;;1630449;72;739;-75
2022/12/30 02:07:27;;;;;;;;;;;21.70;64.70;;;;;;1631618;71;1108;-74
2022/12/30 02:09:29;;;;;;;;;;;21.70;64.80;;;;;;1624540;72;1554;-76
2022/12/30 02:11:31;;;;;;;;;;;21.70;64.70;;;;;;1628799;72;730;-76
2022/12/30 02:13:33;;;;;;;;;;;21.70;64.70;;;;;;1626833;72;715;-75
2022/12/30 02:15:36;;;;;;;;;;;21.70;64.70;;;;;;1636620;71;713;-76
2022/12/30 02:17:49;;;;;;;;;;;21.70;64.70;;;;;;1650609;70;1083;-76
2022/12/30 02:20:09;;;;;;;;;;;21.70;64.70;;;;;;1637857;71;1145;-75
2022/12/30 02:22:15;;;;;;;;;;;21.80;64.70;;;;;;1623684;72;1436;-75
2022/12/30 02:24:19;;;;;;;;;;;21.70;64.60;;;;;;1624004;72;739;-75
2022/12/30 02:26:25;;;;;;;;;;;21.70;64.60;;;;;;1632087;70;1188;-76
2022/12/30 02:28:38;;;;;;;;;;;21.70;64.60;;;;;;1624494;72;1118;-74
2022/12/30 02:30:41;;;;;;;;;;;21.80;64.60;;;;;;1626882;72;698;-74
2022/12/30 02:32:48;;;;;;;;;;;21.70;64.60;;;;;;1643053;72;736;-75
2022/12/30 02:35:00;;;;;;;;;;;21.70;64.50;;;;;;1628168;72;731;-76
2022/12/30 02:37:04;;;;;;;;;;;21.70;64.50;;;;;;1591995;74;2317;-76
2022/12/30 02:39:10;;;;;;;;;;;21.70;64.50;;;;;;1573564;75;680;-80
2022/12/30 02:46:10;;;;;;;;;;;21.70;64.60;;;;;;1612509;72;1154;-77
2022/12/30 02:48:18;;;;;;;;;;;21.70;64.80;;;;;;1631671;72;722;-76
2022/12/30 02:52:42;;;;;;;;;;;21.70;64.70;;;;;;1621013;72;639;-78
2022/12/30 02:54:45;;;;;;;;;;;21.80;64.60;;;;;;1623342;72;636;-76
2022/12/30 02:56:50;;;;;;;;;;;21.80;64.60;;;;;;1625639;72;1927;-76
2022/12/30 03:03:57;;;;;;;;;;;21.80;64.60;;;;;;1627471;72;706;-77
2022/12/30 03:03:57;;;;;;;;;;;21.80;64.70;;;;;;1625266;72;652;-77
2022/12/30 03:06:02;;;;;;;;;;;21.80;64.50;;;;;;1630148;72;1611;-77
2022/12/30 03:08:09;;;;;;;;;;;21.80;64.60;;;;;;1544365;75;1141;-77
2022/12/30 03:12:37;;;;;;;;;;;21.80;64.80;;;;;;1575882;74;690;-80
2022/12/30 03:14:56;;;;;;;;;;;21.70;64.90;;;;;;1590407;74;1257;-79
2022/12/30 03:17:03;;;;;;;;;;;21.80;64.90;;;;;;1568020;75;1950;-79
2022/12/30 03:19:06;;;;;;;;;;;21.70;65.00;;;;;;1627623;72;1492;-78
2022/12/30 03:21:08;;;;;;;;;;;21.80;64.80;;;;;;1626994;72;1082;-77
2022/12/30 03:27:50;;;;;;;;;;;21.80;64.80;;;;;;1616716;72;759;-78
2022/12/30 03:29:57;;;;;;;;;;;21.90;65.00;;;;;;1636733;72;718;-78
2022/12/30 03:31:59;;;;;;;;;;;21.80;64.90;;;;;;1620242;72;723;-78
2022/12/30 03:34:01;;;;;;;;;;;21.70;65.10;;;;;;1630776;72;1401;-78
2022/12/30 03:36:19;;;;;;;;;;;21.70;65.20;;;;;;1626500;72;1963;-80
2022/12/30 03:38:21;;;;;;;;;;;21.70;65.20;;;;;;1622070;72;737;-78
2022/12/30 03:40:28;;;;;;;;;;;21.60;65.40;;;;;;1626545;72;713;-78
2022/12/30 03:42:30;;;;;;;;;;;21.60;65.60;;;;;;1556018;75;1018;-77
2022/12/30 03:44:32;;;;;;;;;;;21.50;66.00;;;;;;1553534;75;833;-78
2022/12/30 03:46:34;;;;;;;;;;;21.60;66.10;;;;;;1571330;74;1651;-77
2022/12/30 03:48:35;;;;;;;;;;;21.50;66.10;;;;;;1573063;74;754;-76
2022/12/30 03:50:37;;;;;;;;;;;21.50;66.10;;;;;;1557168;75;722;-77
2022/12/30 03:52:39;;;;;;;;;;;21.50;66.30;;;;;;1561482;75;740;-78
2022/12/30 03:54:41;;;;;;;;;;;21.50;66.40;;;;;;1628249;72;714;-78
2022/12/30 03:56:43;;;;;;;;;;;21.50;66.40;;;;;;1627693;72;1943;-79
2022/12/30 03:58:45;;;;;;;;;;;21.50;66.60;;;;;;1634125;72;688;-78
2022/12/30 04:00:47;;;;;;;;;;;21.50;66.80;;;;;;1637769;72;1402;-79
2022/12/30 04:02:49;;;;;;;;;;;21.50;66.90;;;;;;1529978;76;1213;-79
2022/12/30 04:04:51;;;;;;;;;;;21.50;66.90;;;;;;1631154;72;771;-79
2022/12/30 04:06:53;;;;;;;;;;;21.50;66.90;;;;;;1616542;72;1124;-79
2022/12/30 04:08:55;;;;;;;;;;;21.50;67.00;;;;;;1629047;72;748;-78
2022/12/30 04:10:56;;;;;;;;;;;21.50;67.00;;;;;;1617491;72;716;-78
2022/12/30 04:12:58;;;;;;;;;;;21.60;67.00;;;;;;1626248;72;738;-77
2022/12/30 04:15:00;;;;;;;;;;;21.60;66.90;;;;;;1589874;74;1538;-76
2022/12/30 04:17:02;;;;;;;;;;;21.50;67.10;;;;;;1613536;71;2191;-71
2022/12/30 04:19:04;;;;;;;;;;;21.40;67.20;;;;;;1650094;71;705;-71
2022/12/30 04:21:06;;;;;;;;;;;21.60;67.10;;;;;;1630930;71;721;-71
2022/12/30 04:23:08;;;;;;;;;;;21.60;67.10;;;;;;1628625;71;721;-72
2022/12/30 04:25:10;;;;;;;;;;;21.60;66.90;;;;;;1644254;71;734;-72
2022/12/30 04:27:11;;;;;;;;;;;21.70;66.80;;;;;;1616017;71;1218;-72
2022/12/30 04:29:13;;;;;;;;;;;21.70;66.70;;;;;;1624231;72;1481;-70
2022/12/30 04:31:15;;;;;;;;;;;21.70;66.70;;;;;;1629266;72;760;-72
2022/12/30 04:33:17;;;;;;;;;;;21.70;66.50;;;;;;1625845;72;746;-71
2022/12/30 04:35:19;;;;;;;;;;;21.70;66.60;;;;;;1623289;72;727;-72
2022/12/30 04:37:21;;;;;;;;;;;21.70;66.50;;;;;;1629270;72;1939;-71
2022/12/30 04:39:23;;;;;;;;;;;21.80;66.40;;;;;;1589210;74;699;-71
2022/12/30 04:41:24;;;;;;;;;;;21.80;66.20;;;;;;1579624;74;697;-72
2022/12/30 04:43:26;;;;;;;;;;;21.90;66.10;;;;;;1591060;74;1464;-71
2022/12/30 04:45:28;;;;;;;;;;;22.00;65.90;;;;;;1581594;74;702;-71
2022/12/30 04:47:30;;;;;;;;;;;22.00;65.70;;;;;;1584630;74;1161;-71
2022/12/30 04:49:32;;;;;;;;;;;22.00;65.60;;;;;;1581633;74;693;-72
2022/12/30 04:51:34;;;;;;;;;;;21.90;65.60;;;;;;1590177;74;696;-72
2022/12/30 04:53:36;;;;;;;;;;;22.00;65.60;;;;;;1586514;74;716;-71
2022/12/30 04:55:38;;;;;;;;;;;22.00;65.60;;;;;;1587040;74;610;-71
2022/12/30 04:57:40;;;;;;;;;;;22.10;65.50;;;;;;1597806;74;1941;-72
2022/12/30 04:59:42;;;;;;;;;;;22.10;65.40;;;;;;1598481;74;757;-72
2022/12/30 05:01:43;;;;;;;;;;;22.10;65.30;;;;;;1591343;74;753;-72
2022/12/30 05:03:45;;;;;;;;;;;22.10;65.30;;;;;;1586232;74;754;-71
2022/12/30 05:05:47;;;;;;;;;;;22.10;65.20;;;;;;1596012;74;733;-72
2022/12/30 05:07:49;;;;;;;;;;;22.10;65.20;;;;;;1579241;74;1136;-73
2022/12/30 05:09:51;;;;;;;;;;;22.00;65.30;;;;;;1582923;74;766;-73
2022/12/30 05:11:53;;;;;;;;;;;22.00;65.40;;;;;;1587065;74;1443;-71
2022/12/30 05:13:55;;;;;;;;;;;22.00;65.80;;;;;;1597186;74;701;-72
2022/12/30 05:15:57;;;;;;;;;;;22.00;65.70;;;;;;1585384;74;696;-70
2022/12/30 05:17:58;;;;;;;;;;;22.00;65.70;;;;;;1599301;74;1936;-72
2022/12/30 05:20:00;;;;;;;;;;;22.00;65.70;;;;;;1589575;74;652;-71
2022/12/30 05:22:02;;;;;;;;;;;22.00;65.70;;;;;;1593706;74;726;-71
2022/12/30 05:26:24;;;;;;;;;;;22.00;65.60;;;;;;1605062;72;1518;-72
2022/12/30 05:28:26;;;;;;;;;;;22.00;65.70;;;;;;1584230;74;726;-72
2022/12/30 05:30:28;;;;;;;;;;;21.90;65.80;;;;;;1589766;74;759;-72
2022/12/30 05:32:30;;;;;;;;;;;21.90;65.80;;;;;;1596147;74;729;-72
2022/12/30 05:34:31;;;;;;;;;;;22.00;66.10;;;;;;1591772;73;735;-74
2022/12/30 05:36:33;;;;;;;;;;;22.00;65.70;;;;;;1582365;74;1197;-71
2022/12/30 05:38:36;;;;;;;;;;;22.00;64.90;;;;;;1585939;74;1942;-71
2022/12/30 05:40:38;;;;;;;;;;;22.00;64.70;;;;;;1599415;74;1472;-71
2022/12/30 05:42:39;;;;;;;;;;;22.00;64.20;;;;;;1598210;74;728;-71
2022/12/30 05:44:42;;;;;;;;;;;22.10;63.90;;;;;;1594670;74;677;-70
2022/12/30 05:46:44;;;;;;;;;;;22.10;63.60;;;;;;1587330;74;1115;-71
2022/12/30 05:48:46;;;;;;;;;;;22.20;63.50;;;;;;1601980;74;737;-71
2022/12/30 05:50:48;;;;;;;;;;;22.10;63.40;;;;;;1601094;74;741;-71
2022/12/30 05:52:50;;;;;;;;;;;22.20;63.40;;;;;;1587403;74;716;-72
2022/12/30 05:54:52;;;;;;;;;;;22.20;63.30;;;;;;1593696;74;1501;-71
2022/12/30 05:56:53;;;;;;;;;;;22.20;63.30;;;;;;1590998;74;1940;-70
2022/12/30 05:58:55;;;;;;;;;;;22.10;63.20;;;;;;1583738;74;672;-71
2022/12/30 06:00:57;;;;;;;;;;;22.10;63.30;;;;;;1594172;74;724;-71
2022/12/30 06:02:59;;;;;;;;;;;22.10;63.30;;;;;;1591462;74;708;-71
2022/12/30 06:05:01;;;;;;;;;;;22.20;63.30;;;;;;1584977;74;677;-71
2022/12/30 06:07:03;;;;;;;;;;;22.10;63.60;;;;;;1582503;74;1166;-73
2022/12/30 06:09:05;;;;;;;;;;;22.00;63.90;;;;;;1597930;74;1573;-72
2022/12/30 06:11:07;;;;;;;;;;;22.10;64.00;;;;;;1591920;74;731;-72
2022/12/30 06:13:08;;;;;;;;;;;22.10;64.10;;;;;;1599755;73;704;-72
2022/12/30 06:15:10;;;;;;;;;;;22.10;64.10;;;;;;1587225;74;733;-71
2022/12/30 06:17:13;;;;;;;;;;;22.10;64.20;;;;;;1597253;74;1925;-72
2022/12/30 06:19:15;;;;;;;;;;;22.10;64.30;;;;;;1589075;74;704;-72
2022/12/30 06:21:16;;;;;;;;;;;22.00;64.30;;;;;;1598065;74;1468;-72
2022/12/30 06:23:18;;;;;;;;;;;22.00;64.40;;;;;;1596918;74;661;-72
2022/12/30 06:25:20;;;;;;;;;;;22.00;64.50;;;;;;1583121;74;714;-75
2022/12/30 06:27:22;;;;;;;;;;;22.00;64.50;;;;;;1586733;74;1159;-72
2022/12/30 06:29:24;;;;;;;;;;;22.00;64.60;;;;;;1590705;74;721;-70
2022/12/30 06:31:26;;;;;;;;;;;22.00;64.50;;;;;;1591475;74;723;-70
2022/12/30 06:33:28;;;;;;;;;;;22.00;64.40;;;;;;1588810;74;728;-73
2022/12/30 06:35:29;;;;;;;;;;;22.00;64.50;;;;;;1590756;74;1469;-71
2022/12/30 06:37:31;;;;;;;;;;;22.00;64.60;;;;;;1576735;74;1933;-72
2022/12/30 06:39:33;;;;;;;;;;;21.90;64.70;;;;;;1593414;74;699;-72
2022/12/30 06:41:35;;;;;;;;;;;21.80;64.90;;;;;;1596376;74;628;-73
2022/12/30 06:43:37;;;;;;;;;;;21.80;65.10;;;;;;1592591;74;701;-72
2022/12/30 06:45:39;;;;;;;;;;;21.70;65.20;;;;;;1578783;74;721;-72
2022/12/30 06:47:41;;;;;;;;;;;21.70;65.40;;;;;;1599778;74;1153;-73
2022/12/30 06:49:43;;;;;;;;;;;21.70;65.70;;;;;;1585263;74;1464;-73
2022/12/30 06:51:45;;;;;;;;;;;21.70;65.80;;;;;;1585134;74;668;-72
2022/12/30 06:53:47;;;;;;;;;;;21.60;65.80;;;;;;1588026;74;749;-72
2022/12/30 06:55:49;;;;;;;;;;;21.50;65.90;;;;;;1583050;74;657;-73
2022/12/30 06:57:51;;;;;;;;;;;21.60;66.00;;;;;;1588708;74;1942;-73
2022/12/30 06:59:53;;;;;;;;;;;21.60;66.00;;;;;;1581966;74;798;-72
2022/12/30 07:01:54;;;;;;;;;;;21.60;66.10;;;;;;1588361;74;749;-72
2022/12/30 07:03:56;;;;;;;;;;;21.60;66.10;;;;;;1591123;74;1452;-73
2022/12/30 07:05:58;;;;;;;;;;;21.50;66.00;;;;;;1585762;74;777;-72
2022/12/30 07:08:00;;;;;;;;;;;21.50;66.00;;;;;;1581163;73;1116;-72
2022/12/30 07:10:02;;;;;;;;;;;21.50;66.00;;;;;;1584427;74;741;-73
2022/12/30 07:12:04;;;;;;;;;;;21.50;65.90;;;;;;1577829;74;729;-74
2022/12/30 07:14:06;;;;;;;;;;;21.60;65.80;;;;;;1595412;74;705;-73
2022/12/30 07:16:08;;;;;;;;;;;21.60;65.60;;;;;;1583977;74;750;-74
2022/12/30 07:18:10;;;;;;;;;;;21.60;65.40;;;;;;1590334;73;1930;-70
2022/12/30 07:20:12;;;;;;;;;;;21.60;65.30;;;;;;1595456;74;684;-73
2022/12/30 07:22:15;;;;;;;;;;;21.60;65.20;;;;;;1596936;74;735;-73
2022/12/30 07:24:17;;;;;;;;;;;21.60;65.20;;;;;;1597798;74;710;-73
2022/12/30 07:26:19;;;;;;;;;;;21.60;65.20;;;;;;1583317;74;1163;-71
2022/12/30 07:28:21;;;;;;;;;;;21.60;65.10;;;;;;1593264;74;732;-72
2022/12/30 07:30:23;;;;;;;;;;;21.60;65.10;;;;;;1594494;74;783;-73
2022/12/30 07:32:25;;;;;;;;;;;21.60;65.10;;;;;;1595871;74;1485;-73
2022/12/30 07:34:27;;;;;;;;;;;21.60;65.10;;;;;;1600629;74;769;-72
2022/12/30 07:36:28;;;;;;;;;;;21.60;65.00;;;;;;1591430;74;1203;-72
2022/12/30 07:38:30;;;;;;;;;;;21.50;65.00;;;;;;1588627;74;1932;-73
2022/12/30 07:40:32;;;;;;;;;;;21.50;65.00;;;;;;1590355;74;728;-73
2022/12/30 07:42:34;;;;;;;;;;;21.50;65.10;;;;;;1577405;74;731;-73
2022/12/30 07:44:37;;;;;;;;;;;21.50;65.10;;;;;;1588580;74;744;-73
2022/12/30 07:46:39;;;;;;;;;;;21.50;65.10;;;;;;1581516;74;1254;-73
2022/12/30 07:48:41;;;;;;;;;;;21.50;65.10;;;;;;1578899;74;862;-71
2022/12/30 07:50:42;;;;;;;;;;;21.40;65.00;;;;;;1583210;74;720;-72
2022/12/30 07:52:44;;;;;;;;;;;21.50;65.10;;;;;;1595646;74;736;-72
2022/12/30 07:54:46;;;;;;;;;;;21.40;65.00;;;;;;1586305;74;744;-73
2022/12/30 07:56:48;;;;;;;;;;;21.40;65.10;;;;;;1592743;74;1147;-73
2022/12/30 07:58:52;;;;;;;;;;;21.40;65.10;;;;;;1596746;74;1926;-73
2022/12/30 08:00:54;;;;;;;;;;;21.40;65.10;;;;;;1589698;74;1549;-71
2022/12/30 08:02:55;;;;;;;;;;;21.40;65.20;;;;;;1587680;74;729;-72
2022/12/30 08:04:57;;;;;;;;;;;21.40;65.20;;;;;;1577076;74;718;-71
2022/12/30 08:06:59;;;;;;;;;;;21.30;65.20;;;;;;1601026;74;1147;-73
2022/12/30 08:09:04;;;;;;;;;;;21.30;65.20;;;;;;1596418;74;637;-72
2022/12/30 08:11:06;;;;;;;;;;;21.40;65.20;;;;;;1587436;74;717;-72
2022/12/30 08:13:08;;;;;;;;;;;21.30;65.20;;;;;;1597600;74;729;-73
2022/12/30 08:15:10;;;;;;;;;;;21.30;65.20;;;;;;1594732;74;1509;-72
2022/12/30 08:17:12;;;;;;;;;;;21.30;65.30;;;;;;1598448;74;1159;-72
2022/12/30 08:19:14;;;;;;;;;;;21.30;65.30;;;;;;1592528;74;1924;-72
2022/12/30 08:21:16;;;;;;;;;;;21.30;65.30;;;;;;1596404;74;743;-72
2022/12/30 08:23:18;;;;;;;;;;;21.30;65.30;;;;;;1597743;72;737;-72
2022/12/30 08:25:20;;;;;;;;;;;21.20;65.20;;;;;;1583480;74;688;-73
2022/12/30 08:27:22;;;;;;;;;;;21.20;65.20;;;;;;1585051;74;1195;-72
2022/12/30 08:29:24;;;;;;;;;;;21.20;65.10;;;;;;1599044;74;1491;-73
2022/12/30 08:31:26;;;;;;;;;;;21.20;65.20;;;;;;1582007;74;721;-73
2022/12/30 08:33:28;;;;;;;;;;;21.30;65.20;;;;;;1586954;74;736;-73
2022/12/30 08:35:30;;;;;;;;;;;21.30;65.20;;;;;;1586079;74;720;-73
2022/12/30 08:37:33;;;;;;;;;;;21.30;65.20;;;;;;1600860;74;1156;-73
2022/12/30 08:39:36;;;;;;;;;;;21.30;65.20;;;;;;1589768;74;1885;-73
2022/12/30 08:41:39;;;;;;;;;;;21.30;65.20;;;;;;1592953;74;755;-72
2022/12/30 08:43:41;;;;;;;;;;;21.20;65.00;;;;;;1590500;74;1542;-72
2022/12/30 08:45:43;;;;;;;;;;;21.20;65.00;;;;;;1588575;74;618;-73
2022/12/30 08:47:45;;;;;;;;;;;21.30;65.20;;;;;;1588336;74;1161;-73
2022/12/30 08:49:47;;;;;;;;;;;21.20;65.00;;;;;;1578929;74;732;-72
2022/12/30 08:51:49;;;;;;;;;;;21.30;65.10;;;;;;1577772;74;702;-72
2022/12/30 08:53:50;;;;;;;;;;;21.20;65.00;;;;;;1576812;74;850;-72
2022/12/30 08:56:02;;;;;;;;;;;21.20;65.00;;;;;;1602167;74;732;-73
2022/12/30 08:58:04;;;;;;;;;;;21.20;65.00;;;;;;1587706;74;1940;-73
2022/12/30 09:00:06;;;;;;;;;;;21.20;65.00;;;;;;1590176;74;740;-74
2022/12/30 09:02:09;;;;;;;;;;;21.30;65.10;;;;;;1593821;74;730;-73
2022/12/30 09:04:11;;;;;;;;;;;21.10;65.00;;;;;;1586346;74;744;-69
2022/12/30 09:06:13;;;;;;;;;;;21.20;65.00;;;;;;1593210;74;707;-72
2022/12/30 09:08:15;;;;;;;;;;;21.20;65.00;;;;;;1599371;74;1135;-73
2022/12/30 09:10:17;;;;;;;;;;;21.20;64.90;;;;;;1596513;74;1460;-72
2022/12/30 09:12:19;;;;;;;;;;;21.20;64.90;;;;;;1587994;74;698;-72
2022/12/30 09:14:22;;;;;;;;;;;21.20;64.90;;;;;;1587744;74;702;-73
2022/12/30 09:16:24;;;;;;;;;;;21.10;65.00;;;;;;1592164;74;1180;-73
2022/12/30 09:18:25;;;;;;;;;;;21.10;64.90;;;;;;1601637;74;1928;-73
2022/12/30 09:20:27;;;;;;;;;;;21.10;64.90;;;;;;1587980;74;776;-73
2022/12/30 09:22:29;;;;;;;;;;;21.10;64.90;;;;;;1582975;74;679;-73
2022/12/30 09:24:31;;;;;;;;;;;21.20;64.90;;;;;;1589854;74;1471;-73
2022/12/30 09:26:33;;;;;;;;;;;21.20;64.90;;;;;;1598262;74;1156;-73
2022/12/30 09:28:35;;;;;;;;;;;21.20;64.90;;;;;;1599327;74;773;-73
2022/12/30 09:30:37;;;;;;;;;;;21.20;64.90;;;;;;1588145;74;708;-72
2022/12/30 09:32:39;;;;;;;;;;;21.20;64.90;;;;;;1590818;74;703;-73
2022/12/30 09:34:41;;;;;;;;;;;21.20;64.90;;;;;;1586571;74;756;-74
2022/12/30 09:36:43;;;;;;;;;;;21.10;64.90;;;;;;1585132;74;1202;-71
2022/12/30 09:38:45;;;;;;;;;;;21.20;64.90;;;;;;1591196;74;1922;-73
2022/12/30 09:40:54;;;;;;;;;;;21.10;64.90;;;;;;1593814;74;739;-73
2022/12/30 09:45:21;;;;;;;;;;;21.10;64.90;;;;;;1582782;74;694;-71
2022/12/30 09:47:23;;;;;;;;;;;21.10;64.90;;;;;;1588920;74;1251;-72
2022/12/30 09:49:26;;;;;;;;;;;21.10;64.90;;;;;;1585358;74;732;-73
2022/12/30 09:51:29;;;;;;;;;;;21.10;64.90;;;;;;1595667;74;752;-72
2022/12/30 09:53:36;;;;;;;;;;;21.10;64.90;;;;;;1588533;74;1359;-71
2022/12/30 09:55:39;;;;;;;;;;;21.10;64.90;;;;;;1592774;74;769;-73
2022/12/30 09:57:41;;;;;;;;;;;21.10;64.90;;;;;;1585407;74;1156;-73
2022/12/30 09:59:43;;;;;;;;;;;21.10;64.90;;;;;;1592171;74;1930;-72
2022/12/30 10:01:46;;;;;;;;;;;21.10;64.90;;;;;;1583643;74;697;-72
2022/12/30 10:03:47;;;;;;;;;;;21.10;64.80;;;;;;1601656;74;723;-73
2022/12/30 10:05:54;;;;;;;;;;;21.10;64.80;;;;;;1584921;74;733;-72
2022/12/30 10:08:14;;;;;;;;;;;21.10;64.80;;;;;;1586092;74;1516;-73
2022/12/30 10:10:20;;;;;;;;;;;21.10;64.80;;;;;;1594207;74;689;-72
2022/12/30 10:12:42;;;;;;;;;;;21.10;64.80;;;;;;1596996;74;1020;-74
2022/12/30 10:14:51;;;;;;;;;;;21.10;64.80;;;;;;1558136;75;1192;-73
2022/12/30 10:17:06;;;;;;;;;;;21.10;64.80;;;;;;1551140;75;2087;-71
2022/12/30 10:19:26;;;;;;;;;;;21.10;64.80;;;;;;1536508;76;1947;-75
2022/12/30 10:21:29;;;;;;;;;;;21.10;64.80;;;;;;1640760;71;1544;-75
2022/12/30 10:23:33;;;;;;;;;;;21.10;64.80;;;;;;1640736;71;1051;-75
2022/12/30 10:25:51;;;;;;;;;;;21.00;64.70;;;;;;1640051;71;690;-75
2022/12/30 10:27:55;;;;;;;;;;;21.10;64.80;;;;;;1642963;71;1199;-75
2022/12/30 10:29:56;;;;;;;;;;;21.10;64.80;;;;;;1650589;71;721;-75
2022/12/30 10:32:00;;;;;;;;;;;21.10;64.80;;;;;;1654089;71;698;-74
2022/12/30 10:34:15;;;;;;;;;;;21.10;64.80;;;;;;1653176;71;1159;-75
2022/12/30 10:36:24;;;;;;;;;;;21.10;64.80;;;;;;1649461;71;1734;-74
2022/12/30 10:38:28;;;;;;;;;;;21.10;64.80;;;;;;1640597;71;1192;-75
2022/12/30 10:40:31;;;;;;;;;;;21.10;64.80;;;;;;1643882;71;1950;-74
2022/12/30 10:42:53;;;;;;;;;;;21.10;64.80;;;;;;1644242;71;1649;-75
2022/12/30 10:44:56;;;;;;;;;;;21.10;64.80;;;;;;1643623;71;698;-74
2022/12/30 10:47:05;;;;;;;;;;;21.10;64.80;;;;;;1651376;71;1137;-75
2022/12/30 10:49:18;;;;;;;;;;;21.10;64.80;;;;;;1654744;71;1520;-75
2022/12/30 10:51:20;;;;;;;;;;;21.10;64.80;;;;;;1646142;71;694;-75
2022/12/30 10:53:22;;;;;;;;;;;21.00;64.70;;;;;;1645074;71;760;-75
2022/12/30 10:55:28;;;;;;;;;;;21.10;64.80;;;;;;1655923;71;714;-75
2022/12/30 10:57:34;;;;;;;;;;;21.10;64.80;;;;;;1650059;71;1111;-74
2022/12/30 10:59:37;;;;;;;;;;;21.10;64.80;;;;;;1647582;71;1950;-75
2022/12/30 11:01:39;;;;;;;;;;;21.00;64.70;;;;;;1655026;71;727;-75
2022/12/30 11:03:45;;;;;;;;;;;21.00;64.70;;;;;;1645802;71;1534;-74
2022/12/30 11:05:47;;;;;;;;;;;21.00;64.70;;;;;;1641059;71;742;-75
2022/12/30 11:07:53;;;;;;;;;;;21.10;64.80;;;;;;1645289;70;1136;-75
2022/12/30 11:09:55;;;;;;;;;;;21.00;64.70;;;;;;1647085;71;1570;-75
2022/12/30 11:16:37;;;;;;;;;;;21.00;64.70;;;;;;1649764;71;1614;-75
2022/12/30 11:18:41;;;;;;;;;;;21.10;64.80;;;;;;1648134;71;1096;-75
2022/12/30 11:20:43;;;;;;;;;;;21.00;64.70;;;;;;1623851;72;1939;-74
2022/12/30 11:22:48;;;;;;;;;;;21.00;64.70;;;;;;1646167;70;762;-75
2022/12/30 11:24:58;;;;;;;;;;;21.10;64.80;;;;;;1643783;71;1031;-74
2022/12/30 11:27:00;;;;;;;;;;;21.00;64.80;;;;;;1647755;71;1129;-73
2022/12/30 11:29:09;;;;;;;;;;;21.00;64.80;;;;;;1651966;71;749;-75
2022/12/30 11:31:11;;;;;;;;;;;21.00;64.70;;;;;;1653447;71;1548;-75
2022/12/30 11:33:17;;;;;;;;;;;21.00;64.70;;;;;;1640405;71;724;-74
2022/12/30 11:35:33;;;;;;;;;;;21.00;64.70;;;;;;1638318;71;688;-74
2022/12/30 11:37:36;;;;;;;;;;;21.00;64.70;;;;;;1649304;71;1646;-75
2022/12/30 11:39:38;;;;;;;;;;;21.10;64.80;;;;;;1641502;71;1946;-75
2022/12/30 11:41:47;;;;;;;;;;;21.00;64.70;;;;;;1650132;71;720;-74
2022/12/30 11:43:50;;;;;;;;;;;21.00;64.70;;;;;;1658342;71;717;-74
2022/12/30 11:45:56;;;;;;;;;;;21.00;64.70;;;;;;1639177;71;1600;-74
2022/12/30 11:47:58;;;;;;;;;;;21.00;64.70;;;;;;1643673;71;1135;-75
2022/12/30 11:50:00;;;;;;;;;;;21.00;64.80;;;;;;1642263;71;675;-74
2022/12/30 11:52:07;;;;;;;;;;;21.00;64.80;;;;;;1657600;71;916;-74
2022/12/30 11:54:13;;;;;;;;;;;21.00;64.80;;;;;;1644675;71;740;-75
2022/12/30 11:56:21;;;;;;;;;;;21.00;64.80;;;;;;1643070;71;688;-74
2022/12/30 11:58:23;;;;;;;;;;;21.00;64.70;;;;;;1651273;71;1097;-75
2022/12/30 12:00:27;;;;;;;;;;;21.00;64.70;;;;;;1641416;71;1954;-75
2022/12/30 12:02:32;;;;;;;;;;;21.00;64.70;;;;;;1643108;71;612;-74
2022/12/30 12:04:37;;;;;;;;;;;21.00;64.70;;;;;;1652229;71;717;-75
2022/12/30 12:06:52;;;;;;;;;;;21.00;64.70;;;;;;1645550;71;722;-75
2022/12/30 12:09:01;;;;;;;;;;;21.00;64.80;;;;;;1644087;71;725;-75
2022/12/30 12:11:04;;;;;;;;;;;21.00;64.80;;;;;;1647171;71;728;-75
2022/12/30 12:13:08;;;;;;;;;;;21.00;64.80;;;;;;1642482;71;1452;-73
2022/12/30 12:15:11;;;;;;;;;;;21.00;64.70;;;;;;1648793;71;1079;-75
2022/12/30 12:17:15;;;;;;;;;;;21.00;64.70;;;;;;1652854;71;1124;-75
2022/12/30 12:19:35;;;;;;;;;;;21.00;64.80;;;;;;1641327;71;1938;-74
2022/12/30 12:21:38;;;;;;;;;;;21.00;64.80;;;;;;1645450;70;784;-75
2022/12/30 12:23:44;;;;;;;;;;;21.00;64.80;;;;;;1649836;71;704;-74
2022/12/30 12:26:00;;;;;;;;;;;21.00;64.80;;;;;;1653999;71;668;-74
2022/12/30 12:28:02;;;;;;;;;;;21.00;64.70;;;;;;1651890;71;1529;-74
2022/12/30 12:30:05;;;;;;;;;;;21.00;64.70;;;;;;1646225;71;652;-75
2022/12/30 12:32:08;;;;;;;;;;;21.00;64.70;;;;;;1645945;71;724;-75
2022/12/30 12:34:17;;;;;;;;;;;21.00;64.70;;;;;;1652986;71;698;-73
2022/12/30 12:36:27;;;;;;;;;;;21.00;64.70;;;;;;1649274;71;679;-75
2022/12/30 12:38:42;;;;;;;;;;;21.00;64.70;;;;;;1651926;71;1088;-75
2022/12/30 12:40:46;;;;;;;;;;;21.00;64.60;;;;;;1646352;71;1938;-74
2022/12/30 12:43:01;;;;;;;;;;;21.00;64.60;;;;;;1654322;71;1477;-75
2022/12/30 12:45:22;;;;;;;;;;;21.00;64.60;;;;;;1656132;71;1189;-74
2022/12/30 12:47:28;;;;;;;;;;;21.00;64.60;;;;;;1646342;71;1077;-74
2022/12/30 12:49:31;;;;;;;;;;;21.00;64.60;;;;;;1645468;71;1575;-75
2022/12/30 12:51:35;;;;;;;;;;;21.00;64.70;;;;;;1651662;71;1575;-75
2022/12/30 12:53:54;;;;;;;;;;;21.00;64.60;;;;;;1651406;71;1157;-74
2022/12/30 12:56:14;;;;;;;;;;;21.00;64.60;;;;;;1644450;71;1519;-74
2022/12/30 12:58:20;;;;;;;;;;;21.00;64.60;;;;;;1642198;71;1112;-75
2022/12/30 13:00:22;;;;;;;;;;;21.00;64.60;;;;;;1641183;71;1947;-75
2022/12/30 13:02:31;;;;;;;;;;;21.00;64.60;;;;;;1644843;71;631;-75
2022/12/30 13:04:38;;;;;;;;;;;21.00;64.60;;;;;;1654024;71;1431;-74
2022/12/30 13:06:58;;;;;;;;;;;21.00;64.60;;;;;;1650298;71;731;-75
2022/12/30 13:09:18;;;;;;;;;;;20.90;64.60;;;;;;1642775;71;671;-75
2022/12/30 13:11:25;;;;;;;;;;;20.90;64.60;;;;;;1645369;71;702;-73
2022/12/30 13:13:37;;;;;;;;;;;21.00;64.60;;;;;;1650206;71;713;-74
2022/12/30 13:15:47;;;;;;;;;;;21.00;64.60;;;;;;1644390;71;696;-74
2022/12/30 13:17:48;;;;;;;;;;;21.00;64.60;;;;;;1651553;71;1144;-74